Ballymahon, Ireland
Current Conditions -  °F | °C
As of 12:30 PM on Monday 26 Jan 2015 (Local Time) from EIKN Reporting Station
Broken Clouds Broken Clouds  
Wind Chill: 35°   Ceiling: 2700
Heat Index: 43°   Visibility: 6mi
Dew Point: 37°   Wind: 15mph
Humidity: 81%   Direction: 290°WNW
Pressure: 30.33"   Gusts: NA
Location:  53.56°N, 7.77°W
Report Text: EIKN 261230Z 29013KT 250V320 9999 FEW016 BKN027 BKN250 06/03 Q1027 NOSIG
Loading
Personal Weather Stations






























Interactive Weather Map New forecast layout! Learn more

10-Day Weather Forecast

Advertisements
Track Severe Weather on mobile